sensor_id;sensor_type;location;lat;lon;timestamp;P1;durP1;ratioP1;P2;durP2;ratioP2
11135;SDS011;5622;50.840;4.948;2023-07-29T00:02:25;7.57;;;2.93;;
11135;SDS011;5622;50.840;4.948;2023-07-29T00:04:54;5.07;;;2.63;;
11135;SDS011;5622;50.840;4.948;2023-07-29T00:07:21;2.73;;;2.47;;
11135;SDS011;5622;50.840;4.948;2023-07-29T00:09:48;2.90;;;2.60;;
11135;SDS011;5622;50.840;4.948;2023-07-29T00:12:16;3.70;;;3.03;;
11135;SDS011;5622;50.840;4.948;2023-07-29T00:14:45;6.03;;;2.83;;
11135;SDS011;5622;50.840;4.948;2023-07-29T00:17:12;3.67;;;2.43;;
11135;SDS011;5622;50.840;4.948;2023-07-29T00:19:39;7.10;;;2.50;;
11135;SDS011;5622;50.840;4.948;2023-07-29T00:22:06;7.77;;;2.33;;
11135;SDS011;5622;50.840;4.948;2023-07-29T00:24:33;4.87;;;2.50;;
11135;SDS011;5622;50.840;4.948;2023-07-29T00:27:00;2.37;;;2.17;;
11135;SDS011;5622;50.840;4.948;2023-07-29T00:29:27;5.53;;;2.57;;
11135;SDS011;5622;50.840;4.948;2023-07-29T00:31:56;4.57;;;2.37;;
11135;SDS011;5622;50.840;4.948;2023-07-29T00:34:23;5.43;;;2.20;;
11135;SDS011;5622;50.840;4.948;2023-07-29T00:36:50;2.63;;;2.43;;
11135;SDS011;5622;50.840;4.948;2023-07-29T00:39:17;5.83;;;2.73;;
11135;SDS011;5622;50.840;4.948;2023-07-29T00:41:45;5.00;;;2.43;;
11135;SDS011;5622;50.840;4.948;2023-07-29T00:44:12;6.03;;;3.33;;
11135;SDS011;5622;50.840;4.948;2023-07-29T00:46:39;2.77;;;2.30;;
11135;SDS011;5622;50.840;4.948;2023-07-29T00:49:09;2.50;;;2.30;;
11135;SDS011;5622;50.840;4.948;2023-07-29T00:51:36;2.67;;;2.43;;
11135;SDS011;5622;50.840;4.948;2023-07-29T00:54:03;10.83;;;2.90;;
11135;SDS011;5622;50.840;4.948;2023-07-29T00:56:30;5.90;;;2.60;;
11135;SDS011;5622;50.840;4.948;2023-07-29T00:58:57;2.50;;;2.30;;
11135;SDS011;5622;50.840;4.948;2023-07-29T01:01:26;5.53;;;2.67;;
11135;SDS011;5622;50.840;4.948;2023-07-29T01:03:54;3.63;;;2.10;;
11135;SDS011;5622;50.840;4.948;2023-07-29T01:06:23;3.17;;;2.30;;
11135;SDS011;5622;50.840;4.948;2023-07-29T01:09:01;2.30;;;2.10;;
11135;SDS011;5622;50.840;4.948;2023-07-29T01:11:33;3.60;;;2.40;;
11135;SDS011;5622;50.840;4.948;2023-07-29T01:14:10;5.10;;;2.20;;
11135;SDS011;5622;50.840;4.948;2023-07-29T01:16:47;3.27;;;1.83;;
11135;SDS011;5622;50.840;4.948;2023-07-29T01:19:22;2.97;;;1.90;;
11135;SDS011;5622;50.840;4.948;2023-07-29T01:22:00;2.60;;;1.90;;
11135;SDS011;5622;50.840;4.948;2023-07-29T01:24:30;4.13;;;2.13;;
11135;SDS011;5622;50.840;4.948;2023-07-29T01:26:58;2.93;;;2.20;;
11135;SDS011;5622;50.840;4.948;2023-07-29T01:29:26;5.57;;;2.23;;
11135;SDS011;5622;50.840;4.948;2023-07-29T01:31:54;5.53;;;2.10;;
11135;SDS011;5622;50.840;4.948;2023-07-29T01:34:28;2.93;;;2.20;;
11135;SDS011;5622;50.840;4.948;2023-07-29T01:36:59;4.07;;;2.00;;
11135;SDS011;5622;50.840;4.948;2023-07-29T01:39:33;4.47;;;2.07;;
11135;SDS011;5622;50.840;4.948;2023-07-29T01:42:03;2.10;;;1.73;;
11135;SDS011;5622;50.840;4.948;2023-07-29T01:44:31;6.63;;;2.67;;
11135;SDS011;5622;50.840;4.948;2023-07-29T01:46:59;5.10;;;2.07;;
11135;SDS011;5622;50.840;4.948;2023-07-29T01:49:26;3.10;;;2.20;;
11135;SDS011;5622;50.840;4.948;2023-07-29T01:51:53;3.57;;;2.20;;
11135;SDS011;5622;50.840;4.948;2023-07-29T01:54:20;4.97;;;2.00;;
11135;SDS011;5622;50.840;4.948;2023-07-29T01:56:49;2.37;;;1.60;;
11135;SDS011;5622;50.840;4.948;2023-07-29T01:59:16;3.00;;;2.00;;
11135;SDS011;5622;50.840;4.948;2023-07-29T02:01:43;1.93;;;1.77;;
11135;SDS011;5622;50.840;4.948;2023-07-29T02:04:11;4.50;;;2.70;;
11135;SDS011;5622;50.840;4.948;2023-07-29T02:06:38;2.10;;;1.90;;
11135;SDS011;5622;50.840;4.948;2023-07-29T02:09:05;9.23;;;2.50;;
11135;SDS011;5622;50.840;4.948;2023-07-29T02:11:33;7.60;;;2.30;;
11135;SDS011;5622;50.840;4.948;2023-07-29T02:14:01;6.17;;;1.90;;
11135;SDS011;5622;50.840;4.948;2023-07-29T02:16:28;3.57;;;1.90;;
11135;SDS011;5622;50.840;4.948;2023-07-29T02:18:55;3.83;;;2.00;;
11135;SDS011;5622;50.840;4.948;2023-07-29T02:21:22;7.37;;;1.97;;
11135;SDS011;5622;50.840;4.948;2023-07-29T02:23:49;1.70;;;1.60;;
11135;SDS011;5622;50.840;4.948;2023-07-29T02:26:16;2.43;;;1.70;;
11135;SDS011;5622;50.840;4.948;2023-07-29T02:28:44;5.57;;;2.10;;
11135;SDS011;5622;50.840;4.948;2023-07-29T02:31:14;4.87;;;2.07;;
11135;SDS011;5622;50.840;4.948;2023-07-29T02:33:42;2.70;;;1.87;;
11135;SDS011;5622;50.840;4.948;2023-07-29T02:36:10;14.57;;;2.50;;
11135;SDS011;5622;50.840;4.948;2023-07-29T02:38:39;8.30;;;2.20;;
11135;SDS011;5622;50.840;4.948;2023-07-29T02:41:06;5.80;;;2.20;;
11135;SDS011;5622;50.840;4.948;2023-07-29T02:43:34;3.27;;;2.00;;
11135;SDS011;5622;50.840;4.948;2023-07-29T02:46:01;5.40;;;2.50;;
11135;SDS011;5622;50.840;4.948;2023-07-29T02:48:30;4.50;;;2.20;;
11135;SDS011;5622;50.840;4.948;2023-07-29T02:50:57;2.90;;;1.83;;
11135;SDS011;5622;50.840;4.948;2023-07-29T02:53:24;3.30;;;2.37;;
11135;SDS011;5622;50.840;4.948;2023-07-29T02:55:51;3.83;;;2.10;;
11135;SDS011;5622;50.840;4.948;2023-07-29T02:58:19;4.10;;;2.20;;
11135;SDS011;5622;50.840;4.948;2023-07-29T03:00:46;3.60;;;2.13;;
11135;SDS011;5622;50.840;4.948;2023-07-29T03:03:13;6.10;;;2.30;;
11135;SDS011;5622;50.840;4.948;2023-07-29T03:05:42;7.57;;;2.43;;
11135;SDS011;5622;50.840;4.948;2023-07-29T03:08:09;10.43;;;2.10;;
11135;SDS011;5622;50.840;4.948;2023-07-29T03:10:38;6.97;;;2.50;;
11135;SDS011;5622;50.840;4.948;2023-07-29T03:13:05;7.97;;;2.30;;
11135;SDS011;5622;50.840;4.948;2023-07-29T03:15:32;5.13;;;2.00;;
11135;SDS011;5622;50.840;4.948;2023-07-29T03:18:00;4.53;;;2.30;;
11135;SDS011;5622;50.840;4.948;2023-07-29T03:20:27;3.57;;;2.40;;
11135;SDS011;5622;50.840;4.948;2023-07-29T03:22:55;3.13;;;2.17;;
11135;SDS011;5622;50.840;4.948;2023-07-29T03:25:22;3.63;;;2.07;;
11135;SDS011;5622;50.840;4.948;2023-07-29T03:27:49;3.60;;;2.40;;
11135;SDS011;5622;50.840;4.948;2023-07-29T03:30:18;3.70;;;2.33;;
11135;SDS011;5622;50.840;4.948;2023-07-29T03:32:47;3.40;;;2.37;;
11135;SDS011;5622;50.840;4.948;2023-07-29T03:35:15;6.07;;;2.30;;
11135;SDS011;5622;50.840;4.948;2023-07-29T03:37:42;4.30;;;2.93;;
11135;SDS011;5622;50.840;4.948;2023-07-29T03:40:11;5.03;;;2.60;;
11135;SDS011;5622;50.840;4.948;2023-07-29T03:42:38;3.83;;;2.20;;
11135;SDS011;5622;50.840;4.948;2023-07-29T03:45:06;10.43;;;3.07;;
11135;SDS011;5622;50.840;4.948;2023-07-29T03:47:33;5.43;;;2.60;;
11135;SDS011;5622;50.840;4.948;2023-07-29T03:50:00;8.20;;;2.40;;
11135;SDS011;5622;50.840;4.948;2023-07-29T03:52:28;5.87;;;2.53;;
11135;SDS011;5622;50.840;4.948;2023-07-29T03:54:55;4.17;;;2.50;;
11135;SDS011;5622;50.840;4.948;2023-07-29T03:57:23;6.47;;;2.40;;
11135;SDS011;5622;50.840;4.948;2023-07-29T03:59:50;5.07;;;2.60;;
11135;SDS011;5622;50.840;4.948;2023-07-29T04:02:17;2.90;;;2.30;;
11135;SDS011;5622;50.840;4.948;2023-07-29T04:04:45;3.00;;;2.60;;
11135;SDS011;5622;50.840;4.948;2023-07-29T04:07:13;4.77;;;2.50;;
11135;SDS011;5622;50.840;4.948;2023-07-29T04:09:40;2.83;;;2.30;;
11135;SDS011;5622;50.840;4.948;2023-07-29T04:12:08;7.27;;;2.80;;
11135;SDS011;5622;50.840;4.948;2023-07-29T04:14:37;4.77;;;2.67;;
11135;SDS011;5622;50.840;4.948;2023-07-29T04:17:04;5.67;;;2.60;;
11135;SDS011;5622;50.840;4.948;2023-07-29T04:19:32;2.80;;;2.30;;
11135;SDS011;5622;50.840;4.948;2023-07-29T04:21:59;2.93;;;2.30;;
11135;SDS011;5622;50.840;4.948;2023-07-29T04:24:26;5.93;;;2.87;;
11135;SDS011;5622;50.840;4.948;2023-07-29T04:26:53;5.03;;;2.70;;
11135;SDS011;5622;50.840;4.948;2023-07-29T04:29:20;3.43;;;2.63;;
11135;SDS011;5622;50.840;4.948;2023-07-29T04:31:49;4.37;;;2.60;;
11135;SDS011;5622;50.840;4.948;2023-07-29T04:34:16;5.70;;;2.53;;
11135;SDS011;5622;50.840;4.948;2023-07-29T04:36:44;7.80;;;2.43;;
11135;SDS011;5622;50.840;4.948;2023-07-29T04:39:11;2.37;;;2.17;;
11135;SDS011;5622;50.840;4.948;2023-07-29T04:41:38;8.47;;;2.43;;
11135;SDS011;5622;50.840;4.948;2023-07-29T04:44:05;3.73;;;2.20;;
11135;SDS011;5622;50.840;4.948;2023-07-29T04:46:33;3.33;;;2.23;;
11135;SDS011;5622;50.840;4.948;2023-07-29T04:49:01;4.93;;;2.10;;
11135;SDS011;5622;50.840;4.948;2023-07-29T04:51:28;3.73;;;2.30;;
11135;SDS011;5622;50.840;4.948;2023-07-29T04:53:56;7.73;;;2.13;;
11135;SDS011;5622;50.840;4.948;2023-07-29T04:56:25;4.03;;;2.30;;
11135;SDS011;5622;50.840;4.948;2023-07-29T04:58:52;9.33;;;2.30;;
11135;SDS011;5622;50.840;4.948;2023-07-29T05:01:20;3.37;;;2.37;;
11135;SDS011;5622;50.840;4.948;2023-07-29T05:03:47;2.20;;;2.00;;
11135;SDS011;5622;50.840;4.948;2023-07-29T05:06:15;2.37;;;2.00;;
11135;SDS011;5622;50.840;4.948;2023-07-29T05:08:42;2.17;;;1.90;;
11135;SDS011;5622;50.840;4.948;2023-07-29T05:11:09;3.70;;;2.23;;
11135;SDS011;5622;50.840;4.948;2023-07-29T05:13:36;2.13;;;1.93;;
11135;SDS011;5622;50.840;4.948;2023-07-29T05:16:04;2.67;;;2.17;;
11135;SDS011;5622;50.840;4.948;2023-07-29T05:18:31;1.90;;;1.80;;
11135;SDS011;5622;50.840;4.948;2023-07-29T05:20:58;2.90;;;1.90;;
11135;SDS011;5622;50.840;4.948;2023-07-29T05:23:26;5.17;;;2.10;;
11135;SDS011;5622;50.840;4.948;2023-07-29T05:25:56;5.33;;;2.10;;
11135;SDS011;5622;50.840;4.948;2023-07-29T05:28:23;3.17;;;2.10;;
11135;SDS011;5622;50.840;4.948;2023-07-29T05:30:50;1.97;;;1.83;;
11135;SDS011;5622;50.840;4.948;2023-07-29T05:33:17;3.07;;;2.00;;
11135;SDS011;5622;50.840;4.948;2023-07-29T05:35:44;9.40;;;2.50;;
11135;SDS011;5622;50.840;4.948;2023-07-29T05:38:12;3.70;;;1.83;;
11135;SDS011;5622;50.840;4.948;2023-07-29T05:40:41;2.80;;;1.70;;
11135;SDS011;5622;50.840;4.948;2023-07-29T05:43:08;1.77;;;1.67;;
11135;SDS011;5622;50.840;4.948;2023-07-29T05:45:35;7.17;;;2.00;;
11135;SDS011;5622;50.840;4.948;2023-07-29T05:48:03;6.80;;;2.23;;
11135;SDS011;5622;50.840;4.948;2023-07-29T05:50:30;3.47;;;2.17;;
11135;SDS011;5622;50.840;4.948;2023-07-29T05:52:57;2.53;;;1.97;;
11135;SDS011;5622;50.840;4.948;2023-07-29T05:55:25;3.60;;;2.07;;
11135;SDS011;5622;50.840;4.948;2023-07-29T05:57:53;4.07;;;2.00;;
11135;SDS011;5622;50.840;4.948;2023-07-29T06:00:20;6.03;;;1.83;;
11135;SDS011;5622;50.840;4.948;2023-07-29T06:02:47;9.17;;;2.23;;
11135;SDS011;5622;50.840;4.948;2023-07-29T06:05:14;7.17;;;2.60;;
11135;SDS011;5622;50.840;4.948;2023-07-29T06:07:41;3.10;;;2.13;;
11135;SDS011;5622;50.840;4.948;2023-07-29T06:10:10;1.87;;;1.73;;
11135;SDS011;5622;50.840;4.948;2023-07-29T06:12:38;2.00;;;1.80;;
11135;SDS011;5622;50.840;4.948;2023-07-29T06:15:07;4.30;;;1.83;;
11135;SDS011;5622;50.840;4.948;2023-07-29T06:17:35;3.00;;;1.90;;
11135;SDS011;5622;50.840;4.948;2023-07-29T06:20:02;2.57;;;1.87;;
11135;SDS011;5622;50.840;4.948;2023-07-29T06:22:31;4.60;;;2.10;;
11135;SDS011;5622;50.840;4.948;2023-07-29T06:24:58;4.57;;;2.30;;
11135;SDS011;5622;50.840;4.948;2023-07-29T06:27:25;4.77;;;2.10;;
11135;SDS011;5622;50.840;4.948;2023-07-29T06:29:52;3.80;;;1.77;;
11135;SDS011;5622;50.840;4.948;2023-07-29T06:32:20;3.90;;;2.00;;
11135;SDS011;5622;50.840;4.948;2023-07-29T06:34:47;4.17;;;1.90;;
11135;SDS011;5622;50.840;4.948;2023-07-29T06:37:16;3.10;;;1.77;;
11135;SDS011;5622;50.840;4.948;2023-07-29T06:39:44;2.10;;;1.80;;
11135;SDS011;5622;50.840;4.948;2023-07-29T06:42:11;3.47;;;1.70;;
11135;SDS011;5622;50.840;4.948;2023-07-29T06:44:38;3.03;;;2.00;;
11135;SDS011;5622;50.840;4.948;2023-07-29T06:47:06;2.33;;;1.80;;
11135;SDS011;5622;50.840;4.948;2023-07-29T06:49:34;4.80;;;1.90;;
11135;SDS011;5622;50.840;4.948;2023-07-29T06:52:01;4.47;;;1.93;;
11135;SDS011;5622;50.840;4.948;2023-07-29T06:54:29;4.47;;;1.97;;
11135;SDS011;5622;50.840;4.948;2023-07-29T06:56:56;2.60;;;1.90;;
11135;SDS011;5622;50.840;4.948;2023-07-29T06:59:23;2.80;;;1.73;;
11135;SDS011;5622;50.840;4.948;2023-07-29T07:01:51;2.10;;;1.57;;
11135;SDS011;5622;50.840;4.948;2023-07-29T07:04:18;2.03;;;1.80;;
11135;SDS011;5622;50.840;4.948;2023-07-29T07:06:46;3.20;;;1.97;;
11135;SDS011;5622;50.840;4.948;2023-07-29T07:09:13;2.47;;;1.90;;
11135;SDS011;5622;50.840;4.948;2023-07-29T07:11:41;5.03;;;1.83;;
11135;SDS011;5622;50.840;4.948;2023-07-29T07:14:07;2.97;;;1.90;;
11135;SDS011;5622;50.840;4.948;2023-07-29T07:16:35;3.67;;;1.60;;
11135;SDS011;5622;50.840;4.948;2023-07-29T07:19:04;1.83;;;1.73;;
11135;SDS011;5622;50.840;4.948;2023-07-29T07:21:31;3.43;;;1.70;;
11135;SDS011;5622;50.840;4.948;2023-07-29T07:24:00;1.80;;;1.70;;
11135;SDS011;5622;50.840;4.948;2023-07-29T07:26:27;1.90;;;1.63;;
11135;SDS011;5622;50.840;4.948;2023-07-29T07:28:54;2.97;;;1.80;;
11135;SDS011;5622;50.840;4.948;2023-07-29T07:31:22;3.60;;;1.67;;
11135;SDS011;5622;50.840;4.948;2023-07-29T07:33:49;1.87;;;1.67;;
11135;SDS011;5622;50.840;4.948;2023-07-29T07:36:16;2.00;;;1.80;;
11135;SDS011;5622;50.840;4.948;2023-07-29T07:38:43;3.50;;;1.70;;
11135;SDS011;5622;50.840;4.948;2023-07-29T07:41:11;3.93;;;1.90;;
11135;SDS011;5622;50.840;4.948;2023-07-29T07:43:38;3.13;;;1.73;;
11135;SDS011;5622;50.840;4.948;2023-07-29T07:46:05;4.93;;;1.70;;
11135;SDS011;5622;50.840;4.948;2023-07-29T07:48:33;1.77;;;1.67;;
11135;SDS011;5622;50.840;4.948;2023-07-29T07:51:00;2.07;;;1.80;;
11135;SDS011;5622;50.840;4.948;2023-07-29T07:53:27;1.57;;;1.47;;
11135;SDS011;5622;50.840;4.948;2023-07-29T07:55:54;1.63;;;1.50;;
11135;SDS011;5622;50.840;4.948;2023-07-29T07:58:22;1.97;;;1.80;;
11135;SDS011;5622;50.840;4.948;2023-07-29T08:00:49;2.20;;;1.80;;
11135;SDS011;5622;50.840;4.948;2023-07-29T08:03:17;3.63;;;1.70;;
11135;SDS011;5622;50.840;4.948;2023-07-29T08:05:44;1.93;;;1.67;;
11135;SDS011;5622;50.840;4.948;2023-07-29T08:08:11;1.67;;;1.57;;
11135;SDS011;5622;50.840;4.948;2023-07-29T08:10:38;2.60;;;1.77;;
11135;SDS011;5622;50.840;4.948;2023-07-29T08:13:05;1.90;;;1.53;;
11135;SDS011;5622;50.840;4.948;2023-07-29T08:15:33;4.63;;;1.50;;
11135;SDS011;5622;50.840;4.948;2023-07-29T08:18:00;4.40;;;1.60;;
11135;SDS011;5622;50.840;4.948;2023-07-29T08:20:27;1.50;;;1.40;;
11135;SDS011;5622;50.840;4.948;2023-07-29T08:22:54;2.07;;;1.50;;
11135;SDS011;5622;50.840;4.948;2023-07-29T08:25:22;2.67;;;1.77;;
11135;SDS011;5622;50.840;4.948;2023-07-29T08:27:49;1.60;;;1.50;;
11135;SDS011;5622;50.840;4.948;2023-07-29T08:30:16;2.37;;;1.47;;
11135;SDS011;5622;50.840;4.948;2023-07-29T08:32:45;1.30;;;1.20;;
11135;SDS011;5622;50.840;4.948;2023-07-29T08:35:12;1.77;;;1.40;;
11135;SDS011;5622;50.840;4.948;2023-07-29T08:37:40;1.80;;;1.70;;
11135;SDS011;5622;50.840;4.948;2023-07-29T08:40:07;2.30;;;1.87;;
11135;SDS011;5622;50.840;4.948;2023-07-29T08:42:35;1.90;;;1.50;;
11135;SDS011;5622;50.840;4.948;2023-07-29T08:45:06;1.77;;;1.53;;
11135;SDS011;5622;50.840;4.948;2023-07-29T08:47:34;1.70;;;1.60;;
11135;SDS011;5622;50.840;4.948;2023-07-29T08:50:03;1.50;;;1.30;;
11135;SDS011;5622;50.840;4.948;2023-07-29T08:52:31;1.70;;;1.60;;
11135;SDS011;5622;50.840;4.948;2023-07-29T08:54:59;2.27;;;1.60;;
11135;SDS011;5622;50.840;4.948;2023-07-29T08:57:27;2.23;;;1.60;;
11135;SDS011;5622;50.840;4.948;2023-07-29T08:59:55;2.50;;;1.73;;
11135;SDS011;5622;50.840;4.948;2023-07-29T09:02:24;3.27;;;1.40;;
11135;SDS011;5622;50.840;4.948;2023-07-29T09:04:51;1.50;;;1.40;;
11135;SDS011;5622;50.840;4.948;2023-07-29T09:07:19;1.83;;;1.70;;
11135;SDS011;5622;50.840;4.948;2023-07-29T09:09:47;2.50;;;2.00;;
11135;SDS011;5622;50.840;4.948;2023-07-29T09:12:14;1.67;;;1.50;;
11135;SDS011;5622;50.840;4.948;2023-07-29T09:14:41;2.07;;;1.87;;
11135;SDS011;5622;50.840;4.948;2023-07-29T09:17:08;1.93;;;1.53;;
11135;SDS011;5622;50.840;4.948;2023-07-29T09:19:36;2.13;;;1.60;;
11135;SDS011;5622;50.840;4.948;2023-07-29T09:22:04;1.50;;;1.40;;
11135;SDS011;5622;50.840;4.948;2023-07-29T09:24:33;2.10;;;1.70;;
11135;SDS011;5622;50.840;4.948;2023-07-29T09:27:00;3.20;;;1.87;;
11135;SDS011;5622;50.840;4.948;2023-07-29T09:29:28;1.57;;;1.47;;
11135;SDS011;5622;50.840;4.948;2023-07-29T09:34:45;1.80;;;1.70;;
11135;SDS011;5622;50.840;4.948;2023-07-29T09:37:15;1.90;;;1.70;;
11135;SDS011;5622;50.840;4.948;2023-07-29T09:39:45;1.77;;;1.67;;
11135;SDS011;5622;50.840;4.948;2023-07-29T09:42:16;2.90;;;1.70;;
11135;SDS011;5622;50.840;4.948;2023-07-29T09:44:45;1.70;;;1.60;;
11135;SDS011;5622;50.840;4.948;2023-07-29T09:47:19;2.17;;;1.80;;
11135;SDS011;5622;50.840;4.948;2023-07-29T09:49:47;2.07;;;1.73;;
11135;SDS011;5622;50.840;4.948;2023-07-29T09:52:15;3.40;;;1.87;;
11135;SDS011;5622;50.840;4.948;2023-07-29T09:54:42;1.90;;;1.80;;
11135;SDS011;5622;50.840;4.948;2023-07-29T09:57:12;2.83;;;1.60;;
11135;SDS011;5622;50.840;4.948;2023-07-29T09:59:40;2.33;;;1.60;;
11135;SDS011;5622;50.840;4.948;2023-07-29T10:02:09;1.83;;;1.73;;
11135;SDS011;5622;50.840;4.948;2023-07-29T10:04:39;2.80;;;2.07;;
11135;SDS011;5622;50.840;4.948;2023-07-29T10:07:08;2.83;;;2.00;;
11135;SDS011;5622;50.840;4.948;2023-07-29T10:09:37;6.30;;;1.90;;
11135;SDS011;5622;50.840;4.948;2023-07-29T10:12:06;3.63;;;2.23;;
11135;SDS011;5622;50.840;4.948;2023-07-29T10:14:35;3.07;;;1.70;;
11135;SDS011;5622;50.840;4.948;2023-07-29T10:17:04;4.33;;;2.50;;
11135;SDS011;5622;50.840;4.948;2023-07-29T10:19:32;2.67;;;2.10;;
11135;SDS011;5622;50.840;4.948;2023-07-29T10:22:00;3.50;;;2.10;;
11135;SDS011;5622;50.840;4.948;2023-07-29T10:24:30;2.27;;;2.07;;
11135;SDS011;5622;50.840;4.948;2023-07-29T10:26:59;4.30;;;2.30;;
11135;SDS011;5622;50.840;4.948;2023-07-29T10:29:29;2.00;;;1.80;;
11135;SDS011;5622;50.840;4.948;2023-07-29T10:32:00;2.40;;;2.20;;
11135;SDS011;5622;50.840;4.948;2023-07-29T10:34:29;2.77;;;1.93;;
11135;SDS011;5622;50.840;4.948;2023-07-29T10:36:57;2.63;;;1.73;;
11135;SDS011;5622;50.840;4.948;2023-07-29T10:39:25;2.93;;;2.13;;
11135;SDS011;5622;50.840;4.948;2023-07-29T10:41:56;2.67;;;1.90;;
11135;SDS011;5622;50.840;4.948;2023-07-29T10:44:46;2.20;;;1.93;;
11135;SDS011;5622;50.840;4.948;2023-07-29T10:47:18;2.77;;;1.90;;
11135;SDS011;5622;50.840;4.948;2023-07-29T10:49:49;2.20;;;2.00;;
11135;SDS011;5622;50.840;4.948;2023-07-29T10:52:27;1.90;;;1.77;;
11135;SDS011;5622;50.840;4.948;2023-07-29T10:54:56;5.63;;;2.30;;
11135;SDS011;5622;50.840;4.948;2023-07-29T10:57:34;2.23;;;2.03;;
11135;SDS011;5622;50.840;4.948;2023-07-29T11:00:02;2.93;;;2.27;;
11135;SDS011;5622;50.840;4.948;2023-07-29T11:02:34;5.33;;;2.60;;
11135;SDS011;5622;50.840;4.948;2023-07-29T11:05:04;3.03;;;2.70;;
11135;SDS011;5622;50.840;4.948;2023-07-29T11:07:32;4.30;;;2.40;;
11135;SDS011;5622;50.840;4.948;2023-07-29T11:10:11;2.77;;;2.43;;
11135;SDS011;5622;50.840;4.948;2023-07-29T11:12:39;6.67;;;3.80;;
11135;SDS011;5622;50.840;4.948;2023-07-29T11:15:13;6.17;;;2.87;;
11135;SDS011;5622;50.840;4.948;2023-07-29T11:17:44;4.83;;;2.90;;
11135;SDS011;5622;50.840;4.948;2023-07-29T11:20:12;5.57;;;2.70;;
11135;SDS011;5622;50.840;4.948;2023-07-29T11:22:41;5.20;;;3.13;;
11135;SDS011;5622;50.840;4.948;2023-07-29T11:25:09;4.47;;;2.73;;
11135;SDS011;5622;50.840;4.948;2023-07-29T11:27:38;5.97;;;3.10;;
11135;SDS011;5622;50.840;4.948;2023-07-29T11:30:06;7.57;;;2.80;;
11135;SDS011;5622;50.840;4.948;2023-07-29T11:32:34;4.43;;;2.70;;
11135;SDS011;5622;50.840;4.948;2023-07-29T11:35:04;4.07;;;2.67;;
11135;SDS011;5622;50.840;4.948;2023-07-29T11:37:34;6.00;;;2.53;;
11135;SDS011;5622;50.840;4.948;2023-07-29T11:40:03;4.00;;;2.50;;
11135;SDS011;5622;50.840;4.948;2023-07-29T11:42:31;4.07;;;2.50;;
11135;SDS011;5622;50.840;4.948;2023-07-29T11:44:59;5.27;;;2.53;;
11135;SDS011;5622;50.840;4.948;2023-07-29T11:47:26;4.83;;;2.67;;
11135;SDS011;5622;50.840;4.948;2023-07-29T11:49:53;5.97;;;3.17;;
11135;SDS011;5622;50.840;4.948;2023-07-29T11:52:25;3.30;;;2.80;;
11135;SDS011;5622;50.840;4.948;2023-07-29T11:54:54;2.83;;;2.50;;
11135;SDS011;5622;50.840;4.948;2023-07-29T11:57:21;2.63;;;2.20;;
11135;SDS011;5622;50.840;4.948;2023-07-29T11:59:49;3.07;;;2.40;;
11135;SDS011;5622;50.840;4.948;2023-07-29T12:02:17;6.07;;;2.97;;
11135;SDS011;5622;50.840;4.948;2023-07-29T12:04:46;3.03;;;2.60;;
11135;SDS011;5622;50.840;4.948;2023-07-29T12:07:14;7.10;;;4.10;;
11135;SDS011;5622;50.840;4.948;2023-07-29T12:09:44;3.23;;;2.70;;
11135;SDS011;5622;50.840;4.948;2023-07-29T12:12:12;3.47;;;2.73;;
11135;SDS011;5622;50.840;4.948;2023-07-29T12:14:43;6.90;;;3.20;;
11135;SDS011;5622;50.840;4.948;2023-07-29T12:17:11;6.27;;;3.70;;
11135;SDS011;5622;50.840;4.948;2023-07-29T12:19:39;4.60;;;3.07;;
11135;SDS011;5622;50.840;4.948;2023-07-29T12:22:07;5.90;;;3.30;;
11135;SDS011;5622;50.840;4.948;2023-07-29T12:24:36;3.70;;;3.20;;
11135;SDS011;5622;50.840;4.948;2023-07-29T12:27:09;4.47;;;3.20;;
11135;SDS011;5622;50.840;4.948;2023-07-29T12:29:39;4.80;;;3.27;;
11135;SDS011;5622;50.840;4.948;2023-07-29T12:32:07;7.17;;;3.30;;
11135;SDS011;5622;50.840;4.948;2023-07-29T12:34:35;4.13;;;3.70;;
11135;SDS011;5622;50.840;4.948;2023-07-29T12:37:04;4.43;;;3.43;;
11135;SDS011;5622;50.840;4.948;2023-07-29T12:39:32;3.90;;;3.50;;
11135;SDS011;5622;50.840;4.948;2023-07-29T12:42:01;4.63;;;3.73;;
11135;SDS011;5622;50.840;4.948;2023-07-29T12:44:31;7.60;;;3.77;;
11135;SDS011;5622;50.840;4.948;2023-07-29T12:47:00;5.10;;;4.37;;
11135;SDS011;5622;50.840;4.948;2023-07-29T12:49:29;6.33;;;4.20;;
11135;SDS011;5622;50.840;4.948;2023-07-29T12:51:56;5.40;;;4.90;;
11135;SDS011;5622;50.840;4.948;2023-07-29T12:54:23;4.60;;;4.07;;
11135;SDS011;5622;50.840;4.948;2023-07-29T12:56:50;5.17;;;4.70;;
11135;SDS011;5622;50.840;4.948;2023-07-29T12:59:18;5.20;;;4.70;;
11135;SDS011;5622;50.840;4.948;2023-07-29T13:01:46;4.90;;;4.50;;
11135;SDS011;5622;50.840;4.948;2023-07-29T13:04:13;4.83;;;4.00;;
11135;SDS011;5622;50.840;4.948;2023-07-29T13:06:40;5.73;;;3.43;;
11135;SDS011;5622;50.840;4.948;2023-07-29T13:09:07;4.97;;;3.60;;
11135;SDS011;5622;50.840;4.948;2023-07-29T13:11:34;6.20;;;3.87;;
11135;SDS011;5622;50.840;4.948;2023-07-29T13:14:02;6.37;;;3.00;;
11135;SDS011;5622;50.840;4.948;2023-07-29T13:16:29;3.17;;;2.87;;
11135;SDS011;5622;50.840;4.948;2023-07-29T13:18:57;3.93;;;2.93;;
11135;SDS011;5622;50.840;4.948;2023-07-29T13:21:24;3.77;;;2.83;;
11135;SDS011;5622;50.840;4.948;2023-07-29T13:23:51;3.00;;;2.80;;
11135;SDS011;5622;50.840;4.948;2023-07-29T13:26:18;3.53;;;3.20;;
11135;SDS011;5622;50.840;4.948;2023-07-29T13:28:46;5.47;;;3.40;;
11135;SDS011;5622;50.840;4.948;2023-07-29T13:31:12;6.27;;;3.20;;
11135;SDS011;5622;50.840;4.948;2023-07-29T13:33:40;4.13;;;3.03;;
11135;SDS011;5622;50.840;4.948;2023-07-29T13:36:08;6.40;;;2.83;;
11135;SDS011;5622;50.840;4.948;2023-07-29T13:38:35;3.00;;;2.80;;
11135;SDS011;5622;50.840;4.948;2023-07-29T13:41:02;5.47;;;2.97;;
11135;SDS011;5622;50.840;4.948;2023-07-29T13:43:29;3.40;;;3.10;;
11135;SDS011;5622;50.840;4.948;2023-07-29T13:45:56;4.40;;;2.80;;
11135;SDS011;5622;50.840;4.948;2023-07-29T13:48:24;3.43;;;3.10;;
11135;SDS011;5622;50.840;4.948;2023-07-29T13:50:51;5.23;;;3.00;;
11135;SDS011;5622;50.840;4.948;2023-07-29T13:53:19;3.00;;;2.80;;
11135;SDS011;5622;50.840;4.948;2023-07-29T13:55:46;2.60;;;2.40;;
11135;SDS011;5622;50.840;4.948;2023-07-29T13:58:13;4.80;;;2.67;;
11135;SDS011;5622;50.840;4.948;2023-07-29T14:00:40;2.70;;;2.50;;
11135;SDS011;5622;50.840;4.948;2023-07-29T14:03:08;2.60;;;2.40;;
11135;SDS011;5622;50.840;4.948;2023-07-29T14:05:35;2.40;;;2.20;;
11135;SDS011;5622;50.840;4.948;2023-07-29T14:08:02;2.83;;;2.63;;
11135;SDS011;5622;50.840;4.948;2023-07-29T14:10:30;2.83;;;2.63;;
11135;SDS011;5622;50.840;4.948;2023-07-29T14:12:57;2.70;;;2.50;;
11135;SDS011;5622;50.840;4.948;2023-07-29T14:15:24;2.20;;;2.10;;
11135;SDS011;5622;50.840;4.948;2023-07-29T14:17:53;3.37;;;2.20;;
11135;SDS011;5622;50.840;4.948;2023-07-29T14:20:20;3.23;;;2.20;;
11135;SDS011;5622;50.840;4.948;2023-07-29T14:22:47;2.50;;;2.00;;
11135;SDS011;5622;50.840;4.948;2023-07-29T14:25:14;2.43;;;2.23;;
11135;SDS011;5622;50.840;4.948;2023-07-29T14:27:43;2.73;;;2.23;;
11135;SDS011;5622;50.840;4.948;2023-07-29T14:30:10;2.77;;;2.53;;
11135;SDS011;5622;50.840;4.948;2023-07-29T14:32:37;4.47;;;2.60;;
11135;SDS011;5622;50.840;4.948;2023-07-29T14:35:05;2.70;;;1.97;;
11135;SDS011;5622;50.840;4.948;2023-07-29T14:37:33;5.27;;;2.40;;
11135;SDS011;5622;50.840;4.948;2023-07-29T14:40:00;2.27;;;2.07;;
11135;SDS011;5622;50.840;4.948;2023-07-29T14:42:28;7.80;;;2.40;;
11135;SDS011;5622;50.840;4.948;2023-07-29T14:44:56;2.53;;;2.20;;
11135;SDS011;5622;50.840;4.948;2023-07-29T14:47:23;2.47;;;1.87;;
11135;SDS011;5622;50.840;4.948;2023-07-29T14:49:50;2.23;;;2.00;;
11135;SDS011;5622;50.840;4.948;2023-07-29T14:52:17;3.77;;;1.80;;
11135;SDS011;5622;50.840;4.948;2023-07-29T14:54:44;2.10;;;1.90;;
11135;SDS011;5622;50.840;4.948;2023-07-29T14:57:12;2.00;;;1.90;;
11135;SDS011;5622;50.840;4.948;2023-07-29T14:59:39;2.47;;;1.83;;
11135;SDS011;5622;50.840;4.948;2023-07-29T15:02:07;2.13;;;1.80;;
11135;SDS011;5622;50.840;4.948;2023-07-29T15:04:34;2.03;;;1.80;;
11135;SDS011;5622;50.840;4.948;2023-07-29T15:07:02;2.63;;;1.90;;
11135;SDS011;5622;50.840;4.948;2023-07-29T15:09:29;1.80;;;1.70;;